Time;durP1;ratioP1;P1;durP2;ratioP2;P2;SDS_P1;SDS_P2;PMS_P1;PMS_P2;Temp;Humidity;BMP_temperature;BMP_pressure;BME280_temperature;BME280_humidity;BME280_pressure;Samples;Min_cycle;Max_cycle;Signal;HPM_P1;HPM_P2
2023/10/26 00:00:34;;;;;;;35.08;18.52;;;11.50;99.90;;;;;;5034143;28;20843;-77
2023/10/26 00:03:00;;;;;;;40.65;20.05;;;11.50;99.90;;;;;;5043873;28;20056;-77
2023/10/26 00:05:26;;;;;;;37.78;19.17;;;11.50;99.90;;;;;;5034355;28;20021;-77
2023/10/26 00:07:51;;;;;;;36.47;18.30;;;11.50;99.90;;;;;;5033338;28;20131;-77
2023/10/26 00:10:17;;;;;;;32.53;17.55;;;11.50;99.90;;;;;;5029035;28;20021;-77
2023/10/26 00:12:43;;;;;;;42.10;20.58;;;11.50;99.90;;;;;;5045427;28;20037;-77
2023/10/26 00:15:10;;;;;;;53.95;21.88;;;11.40;99.90;;;;;;5045641;28;20085;-77
2023/10/26 00:17:36;;;;;;;46.10;20.48;;;11.40;99.90;;;;;;5060855;28;20061;-78
2023/10/26 00:20:02;;;;;;;47.08;20.88;;;11.40;99.90;;;;;;5062410;28;20142;-78
2023/10/26 00:22:28;;;;;;;44.08;20.05;;;11.40;99.90;;;;;;5058158;28;20108;-78
2023/10/26 00:24:54;;;;;;;36.60;18.13;;;11.40;99.90;;;;;;5060615;28;20032;-78
2023/10/26 00:27:20;;;;;;;45.55;21.58;;;11.30;99.90;;;;;;5050642;28;20025;-79
2023/10/26 00:29:45;;;;;;;44.10;20.05;;;11.30;99.90;;;;;;5058635;28;20363;-79
2023/10/26 00:32:12;;;;;;;36.05;19.33;;;11.30;99.90;;;;;;5044651;28;20025;-78
2023/10/26 00:34:38;;;;;;;41.40;20.50;;;11.20;99.90;;;;;;5041266;28;20022;-77
2023/10/26 00:37:03;;;;;;;39.25;19.77;;;11.20;99.90;;;;;;5052355;28;20021;-78
2023/10/26 00:39:29;;;;;;;38.53;19.75;;;11.10;99.90;;;;;;5045860;28;20025;-79
2023/10/26 00:41:55;;;;;;;42.53;19.30;;;11.10;99.90;;;;;;5050400;28;20498;-86
2023/10/26 00:44:22;;;;;;;38.35;20.02;;;11.10;99.90;;;;;;5033383;28;20098;-82
2023/10/26 00:46:49;;;;;;;40.70;20.60;;;11.00;99.90;;;;;;5036667;28;20096;-82
2023/10/26 00:49:16;;;;;;;36.20;19.35;;;11.00;99.90;;;;;;5048897;28;20398;-78
2023/10/26 00:51:47;;;;;;;47.63;21.17;;;10.90;99.90;;;;;;5057785;28;20053;-78
2023/10/26 00:54:14;;;;;;;49.25;21.50;;;10.90;99.90;;;;;;5046919;28;20025;-78
2023/10/26 00:56:40;;;;;;;37.50;19.92;;;10.90;99.90;;;;;;5042028;28;20073;-78
2023/10/26 00:59:05;;;;;;;41.85;19.95;;;10.80;99.90;;;;;;5043640;28;20024;-78
2023/10/26 01:01:32;;;;;;;34.88;18.88;;;10.80;99.90;;;;;;5051584;28;20397;-77
2023/10/26 01:03:59;;;;;;;44.47;21.35;;;10.80;99.90;;;;;;5047888;28;20446;-78
2023/10/26 01:06:25;;;;;;;51.78;22.50;;;10.80;99.90;;;;;;5032940;28;20112;-77
2023/10/26 01:08:50;;;;;;;67.45;28.05;;;10.80;99.90;;;;;;5030353;28;20033;-78
2023/10/26 01:11:16;;;;;;;71.38;31.75;;;10.70;99.90;;;;;;5029374;28;20024;-77
2023/10/26 01:13:43;;;;;;;81.28;34.28;;;10.70;99.90;;;;;;5050280;28;20051;-79
2023/10/26 01:16:09;;;;;;;63.55;26.58;;;10.80;99.90;;;;;;5061789;28;20469;-78
2023/10/26 01:18:35;;;;;;;62.40;26.55;;;10.70;99.90;;;;;;5065190;28;20067;-79
2023/10/26 01:21:00;;;;;;;64.88;23.17;;;10.70;99.90;;;;;;5052447;28;20447;-77
2023/10/26 01:23:26;;;;;;;53.92;22.20;;;10.80;99.90;;;;;;5058247;28;20540;-78
2023/10/26 01:25:55;;;;;;;50.30;22.65;;;10.70;99.90;;;;;;5051410;28;20029;-78
2023/10/26 01:28:21;;;;;;;57.25;23.77;;;10.70;99.90;;;;;;5059774;28;20008;-78
2023/10/26 01:30:47;;;;;;;54.88;24.40;;;10.70;99.90;;;;;;5048764;28;20032;-78
2023/10/26 01:33:13;;;;;;;44.20;21.63;;;10.70;99.90;;;;;;5045966;28;20025;-78
2023/10/26 01:35:41;;;;;;;44.78;21.73;;;10.70;99.90;;;;;;5046757;28;20040;-77
2023/10/26 01:38:06;;;;;;;53.00;25.13;;;10.70;99.90;;;;;;5037575;28;20033;-78
2023/10/26 01:40:33;;;;;;;48.10;23.55;;;10.70;99.90;;;;;;5042929;28;20025;-79
2023/10/26 01:42:58;;;;;;;57.00;24.25;;;10.70;99.90;;;;;;5055626;28;20489;-78
2023/10/26 01:45:24;;;;;;;56.30;26.17;;;10.60;99.90;;;;;;5043260;28;20074;-78
2023/10/26 01:47:54;;;;;;;63.65;25.17;;;10.70;99.90;;;;;;5066423;28;20078;-77
2023/10/26 01:50:20;;;;;;;62.25;26.73;;;10.60;99.90;;;;;;5062188;28;20021;-77
2023/10/26 01:52:46;;;;;;;70.75;26.73;;;10.60;99.90;;;;;;5056580;28;20021;-79
2023/10/26 01:55:11;;;;;;;96.60;29.27;;;10.60;99.90;;;;;;5046715;28;20441;-77
2023/10/26 01:57:37;;;;;;;67.10;25.52;;;10.60;99.90;;;;;;5061173;28;20060;-78
2023/10/26 02:00:03;;;;;;;60.28;25.50;;;10.50;99.90;;;;;;5046592;28;20021;-79
2023/10/26 02:02:28;;;;;;;62.22;24.67;;;10.50;99.90;;;;;;5032118;28;20025;-78
2023/10/26 02:04:57;;;;;;;58.50;24.98;;;10.60;99.90;;;;;;5044862;28;20443;-79
2023/10/26 02:07:22;;;;;;;67.30;27.15;;;10.60;99.90;;;;;;5029964;28;20091;-78
2023/10/26 02:09:48;;;;;;;71.80;27.85;;;10.60;99.90;;;;;;5039569;28;20056;-79
2023/10/26 02:12:13;;;;;;;73.55;26.70;;;10.60;99.90;;;;;;5064566;28;20029;-79
2023/10/26 02:14:39;;;;;;;65.90;26.67;;;10.70;99.90;;;;;;5060065;28;20021;-78
2023/10/26 02:17:05;;;;;;;63.97;26.45;;;10.70;99.90;;;;;;5060476;28;20023;-79
2023/10/26 02:19:31;;;;;;;65.43;26.95;;;10.70;99.90;;;;;;5048284;28;20031;-78
2023/10/26 02:21:56;;;;;;;64.07;26.15;;;10.70;99.90;;;;;;5052094;28;20044;-79
2023/10/26 02:24:22;;;;;;;66.32;26.52;;;10.70;99.90;;;;;;5044302;28;20037;-79
2023/10/26 02:26:48;;;;;;;84.07;27.60;;;10.70;99.90;;;;;;5060285;28;20035;-79
2023/10/26 02:29:13;;;;;;;49.75;23.33;;;10.70;99.90;;;;;;5039228;28;20056;-79
2023/10/26 02:31:39;;;;;;;71.03;27.33;;;10.70;99.90;;;;;;5047759;28;20382;-78
2023/10/26 02:34:05;;;;;;;55.30;25.33;;;10.70;99.90;;;;;;5035621;28;20024;-78
2023/10/26 02:36:30;;;;;;;61.53;26.40;;;10.80;99.90;;;;;;5053908;28;20049;-79
2023/10/26 02:38:56;;;;;;;60.38;25.50;;;10.70;99.90;;;;;;5031151;28;20030;-79
2023/10/26 02:41:22;;;;;;;54.65;23.63;;;10.80;99.90;;;;;;5027564;28;20509;-79
2023/10/26 02:43:47;;;;;;;51.80;24.98;;;10.80;99.90;;;;;;5038192;28;20025;-78
2023/10/26 02:46:13;;;;;;;46.55;21.35;;;10.80;99.90;;;;;;5055356;28;20408;-79
2023/10/26 02:48:39;;;;;;;73.65;26.55;;;10.80;99.90;;;;;;5035495;28;20037;-79
2023/10/26 02:51:05;;;;;;;70.13;27.00;;;10.80;99.90;;;;;;5051832;28;20103;-79
2023/10/26 02:53:31;;;;;;;49.13;23.60;;;10.80;99.90;;;;;;5033085;28;20031;-79
2023/10/26 02:55:56;;;;;;;70.47;26.65;;;10.80;99.90;;;;;;5044750;28;20071;-79
2023/10/26 02:58:22;;;;;;;64.78;26.42;;;10.80;99.90;;;;;;5034822;28;20454;-79
2023/10/26 03:00:48;;;;;;;58.38;25.60;;;10.80;99.90;;;;;;5039326;28;20021;-79
2023/10/26 03:03:14;;;;;;;73.50;27.55;;;10.80;99.90;;;;;;5042246;28;20367;-79
2023/10/26 03:05:40;;;;;;;60.75;26.20;;;10.80;99.90;;;;;;5040364;28;20033;-79
2023/10/26 03:08:05;;;;;;;63.58;25.60;;;10.80;99.90;;;;;;5054100;28;20025;-78
2023/10/26 03:10:31;;;;;;;49.88;24.00;;;10.70;99.90;;;;;;5037440;28;20482;-79
2023/10/26 03:12:57;;;;;;;59.47;24.20;;;10.70;99.90;;;;;;5064472;28;20048;-78
2023/10/26 03:15:23;;;;;;;64.20;25.77;;;10.70;99.90;;;;;;5060986;28;20505;-80
2023/10/26 03:17:49;;;;;;;56.15;24.65;;;10.70;99.90;;;;;;5060543;28;20099;-79
2023/10/26 03:20:15;;;;;;;62.95;25.65;;;10.70;99.90;;;;;;5061189;28;20139;-79
2023/10/26 03:22:40;;;;;;;58.95;24.27;;;10.70;99.90;;;;;;5053805;28;20018;-79
2023/10/26 03:25:07;;;;;;;58.90;24.70;;;10.70;99.90;;;;;;5062236;28;20170;-78
2023/10/26 03:27:33;;;;;;;50.33;24.00;;;10.60;99.90;;;;;;5043816;28;20021;-79
2023/10/26 03:29:58;;;;;;;62.90;25.70;;;10.60;99.90;;;;;;5051271;28;20476;-79
2023/10/26 03:32:24;;;;;;;68.45;26.35;;;10.60;99.90;;;;;;5047191;28;20032;-79
2023/10/26 03:34:50;;;;;;;57.05;24.55;;;10.60;99.90;;;;;;5047268;28;20546;-79
2023/10/26 03:37:16;;;;;;;49.88;23.17;;;10.60;99.90;;;;;;5046495;28;20687;-78
2023/10/26 03:39:42;;;;;;;56.45;24.85;;;10.60;99.90;;;;;;5035523;28;20034;-78
2023/10/26 03:42:07;;;;;;;48.13;23.13;;;10.60;99.90;;;;;;5031497;28;20033;-78
2023/10/26 03:44:33;;;;;;;39.88;20.27;;;10.60;99.90;;;;;;5051131;28;20028;-79
2023/10/26 03:46:59;;;;;;;71.72;25.65;;;10.60;99.90;;;;;;5054442;28;20031;-78
2023/10/26 03:49:25;;;;;;;54.80;24.65;;;10.60;99.90;;;;;;5067035;28;20115;-78
2023/10/26 03:51:50;;;;;;;73.93;27.05;;;10.50;99.90;;;;;;5061948;28;20031;-78
2023/10/26 03:54:16;;;;;;;58.55;24.52;;;10.50;99.90;;;;;;5048141;28;20389;-79
2023/10/26 03:56:43;;;;;;;51.60;23.73;;;10.50;99.90;;;;;;5046587;28;20493;-79
2023/10/26 03:59:08;;;;;;;47.00;22.70;;;10.50;99.90;;;;;;5046922;28;20017;-79
2023/10/26 04:01:37;;;;;;;45.38;21.63;;;10.40;99.90;;;;;;5036808;28;20076;-78
2023/10/26 04:04:03;;;;;;;59.72;24.20;;;10.40;99.90;;;;;;5035633;28;20025;-79
2023/10/26 04:06:32;;;;;;;44.33;21.67;;;10.40;99.90;;;;;;5034262;28;20540;-79
2023/10/26 04:08:58;;;;;;;53.80;23.55;;;10.40;99.90;;;;;;5047078;28;20120;-78
2023/10/26 04:11:26;;;;;;;44.00;21.65;;;10.40;99.90;;;;;;5039852;28;20155;-79
2023/10/26 04:13:55;;;;;;;61.03;23.77;;;10.40;99.90;;;;;;5066531;28;20028;-78
2023/10/26 04:16:21;;;;;;;52.58;22.83;;;10.40;99.90;;;;;;5058096;28;20028;-78
2023/10/26 04:18:47;;;;;;;41.03;20.48;;;10.30;99.90;;;;;;5058992;28;20032;-79
2023/10/26 04:21:13;;;;;;;40.47;19.90;;;10.30;99.90;;;;;;5054687;28;20404;-78
2023/10/26 04:23:38;;;;;;;43.83;21.52;;;10.30;99.90;;;;;;5059864;28;20032;-79
2023/10/26 04:26:05;;;;;;;48.00;22.20;;;10.30;99.90;;;;;;5047816;28;20022;-78
2023/10/26 04:28:30;;;;;;;63.65;24.55;;;10.30;99.90;;;;;;5053814;28;20095;-78
2023/10/26 04:30:56;;;;;;;58.25;24.20;;;10.30;99.90;;;;;;5046834;28;20049;-78
2023/10/26 04:33:22;;;;;;;65.80;24.63;;;10.30;99.90;;;;;;5045880;28;20065;-78
2023/10/26 04:35:48;;;;;;;57.63;23.38;;;10.30;99.90;;;;;;5041422;28;20021;-79
2023/10/26 04:38:14;;;;;;;64.72;26.25;;;10.30;99.90;;;;;;5041216;28;20030;-79
2023/10/26 04:40:41;;;;;;;57.33;24.35;;;10.20;99.90;;;;;;5048453;28;20029;-78
2023/10/26 04:43:08;;;;;;;46.95;21.85;;;10.30;99.90;;;;;;5049705;28;20068;-78
2023/10/26 04:45:34;;;;;;;47.88;21.95;;;10.30;99.90;;;;;;5054636;28;20024;-78
2023/10/26 04:48:01;;;;;;;51.63;22.90;;;10.30;99.90;;;;;;5063214;28;20056;-78
2023/10/26 04:50:27;;;;;;;53.17;23.05;;;10.20;99.90;;;;;;5059298;28;20019;-79
2023/10/26 04:52:53;;;;;;;71.53;24.00;;;10.30;99.90;;;;;;5055625;28;20036;-79
2023/10/26 04:55:19;;;;;;;45.20;21.50;;;10.30;99.90;;;;;;5042770;28;20026;-78
2023/10/26 04:57:45;;;;;;;46.78;22.42;;;10.20;99.90;;;;;;5052110;28;20036;-78
2023/10/26 05:00:11;;;;;;;64.00;25.00;;;10.20;99.90;;;;;;5034691;28;20103;-78
2023/10/26 05:02:37;;;;;;;55.92;23.48;;;10.20;99.90;;;;;;5035516;28;20039;-78
2023/10/26 05:05:04;;;;;;;52.95;23.20;;;10.20;99.90;;;;;;5039710;28;20025;-79
2023/10/26 05:07:30;;;;;;;66.28;25.08;;;10.10;99.90;;;;;;5030845;28;20021;-78
2023/10/26 05:09:57;;;;;;;66.82;26.45;;;10.10;99.90;;;;;;5055201;28;20028;-78
2023/10/26 05:12:22;;;;;;;44.50;22.23;;;10.10;99.90;;;;;;5058298;28;20040;-78
2023/10/26 05:14:49;;;;;;;62.00;23.58;;;10.10;99.90;;;;;;5042286;28;20020;-79
2023/10/26 05:17:15;;;;;;;291.88;24.00;;;10.00;99.90;;;;;;5055080;28;20101;-79
2023/10/26 05:19:40;;;;;;;308.45;24.02;;;9.90;99.90;;;;;;5057915;28;20055;-79
2023/10/26 05:22:06;;;;;;;61.95;19.40;;;9.90;99.90;;;;;;5054666;28;20036;-79
2023/10/26 05:24:32;;;;;;;63.45;18.60;;;9.80;99.90;;;;;;5050338;28;20028;-79
2023/10/26 05:26:58;;;;;;;139.02;23.50;;;9.80;99.90;;;;;;5057290;28;20027;-79
2023/10/26 05:29:24;;;;;;;66.63;20.25;;;9.70;99.90;;;;;;5050135;28;20074;-78
2023/10/26 05:31:49;;;;;;;105.75;24.77;;;9.70;99.90;;;;;;5044283;28;20646;-78
2023/10/26 05:34:15;;;;;;;97.28;24.30;;;9.80;99.90;;;;;;5043794;28;20446;-79
2023/10/26 05:36:41;;;;;;;101.85;24.75;;;9.80;99.90;;;;;;5038991;28;20119;-79
2023/10/26 05:39:07;;;;;;;70.70;23.90;;;9.80;99.90;;;;;;5039780;28;20036;-79
2023/10/26 05:41:35;;;;;;;90.15;24.70;;;9.90;99.90;;;;;;5034096;28;20026;-78
2023/10/26 05:44:01;;;;;;;130.60;23.70;;;9.90;99.90;;;;;;5044846;28;20050;-79
2023/10/26 05:46:26;;;;;;;122.85;23.98;;;9.90;99.90;;;;;;5046619;28;20033;-79
2023/10/26 05:48:52;;;;;;;97.38;22.17;;;9.90;99.90;;;;;;5056907;28;20025;-80
2023/10/26 05:51:18;;;;;;;74.40;22.48;;;10.00;99.90;;;;;;5053173;28;20024;-79
2023/10/26 05:53:43;;;;;;;65.45;22.48;;;10.00;99.90;;;;;;5051174;28;20028;-79
2023/10/26 05:56:10;;;;;;;48.75;20.05;;;10.00;99.90;;;;;;5047591;28;20486;-79
2023/10/26 05:58:36;;;;;;;75.95;19.95;;;10.00;99.90;;;;;;5052345;28;20056;-78
2023/10/26 06:01:02;;;;;;;76.00;21.38;;;10.00;99.90;;;;;;5060769;28;20056;-78
2023/10/26 06:03:29;;;;;;;105.25;21.83;;;10.00;99.90;;;;;;5045185;28;20102;-79
2023/10/26 06:06:01;;;;;;;51.85;18.73;;;10.10;99.90;;;;;;5046177;28;20024;-80
2023/10/26 06:08:27;;;;;;;81.90;19.55;;;10.10;99.90;;;;;;5035494;28;20025;-79
2023/10/26 06:10:53;;;;;;;118.18;21.20;;;10.10;99.90;;;;;;5044729;28;20537;-79
2023/10/26 06:13:19;;;;;;;135.95;21.50;;;10.00;99.90;;;;;;5057851;28;20130;-79
2023/10/26 06:15:44;;;;;;;351.80;28.67;;;10.00;99.90;;;;;;5039267;28;20043;-80
2023/10/26 06:18:10;;;;;;;92.57;20.48;;;10.00;99.90;;;;;;5045322;28;20118;-79
2023/10/26 06:20:36;;;;;;;242.30;22.20;;;9.90;99.90;;;;;;5042224;28;20036;-80
2023/10/26 06:23:02;;;;;;;200.93;21.90;;;9.90;99.90;;;;;;5047668;28;20032;-79
2023/10/26 06:25:28;;;;;;;258.50;23.65;;;9.80;99.90;;;;;;5043626;28;20450;-79
2023/10/26 06:27:55;;;;;;;196.10;22.80;;;9.80;99.90;;;;;;5047534;28;20048;-79
2023/10/26 06:30:20;;;;;;;178.63;21.60;;;9.80;99.90;;;;;;5043768;28;20476;-78
2023/10/26 06:32:47;;;;;;;87.53;20.02;;;9.70;99.90;;;;;;5041681;28;20033;-79
2023/10/26 06:35:12;;;;;;;68.88;19.30;;;9.70;99.90;;;;;;5042712;28;20021;-80
2023/10/26 06:37:38;;;;;;;82.97;19.77;;;9.70;99.90;;;;;;5032197;28;20060;-78
2023/10/26 06:40:08;;;;;;;87.78;19.80;;;9.70;99.90;;;;;;5045779;28;20028;-79
2023/10/26 06:42:34;;;;;;;169.80;22.53;;;9.70;99.90;;;;;;5035266;28;20064;-79
2023/10/26 06:45:00;;;;;;;119.15;20.60;;;9.70;99.90;;;;;;5049207;28;20106;-79
2023/10/26 06:47:25;;;;;;;121.78;21.00;;;9.70;99.90;;;;;;5045353;28;20513;-79
2023/10/26 06:49:51;;;;;;;81.53;19.17;;;9.80;99.90;;;;;;5056638;28;20021;-78
2023/10/26 06:52:17;;;;;;;80.32;19.40;;;9.70;99.90;;;;;;5048853;28;20375;-79
2023/10/26 06:54:49;;;;;;;61.22;18.52;;;9.80;99.90;;;;;;5055217;28;20187;-78
2023/10/26 06:57:15;;;;;;;94.20;19.25;;;9.70;99.90;;;;;;5049210;28;20057;-79
2023/10/26 06:59:43;;;;;;;114.90;19.63;;;9.70;99.90;;;;;;5044269;28;20475;-80
2023/10/26 07:02:10;;;;;;;125.20;19.80;;;9.70;99.90;;;;;;5048226;28;20020;-78
2023/10/26 07:04:36;;;;;;;170.02;19.05;;;9.70;99.90;;;;;;5046137;28;20095;-79
2023/10/26 07:07:02;;;;;;;151.27;19.88;;;9.70;99.90;;;;;;5048018;28;20025;-79
2023/10/26 07:09:29;;;;;;;28.90;13.45;;;9.70;99.90;;;;;;5047720;28;20057;-79
2023/10/26 07:11:54;;;;;;;49.67;16.80;;;9.70;99.90;;;;;;5050146;28;20059;-79
2023/10/26 07:14:20;;;;;;;95.72;18.17;;;9.70;99.90;;;;;;5054439;28;20025;-79
2023/10/26 07:16:46;;;;;;;60.63;18.08;;;9.80;99.90;;;;;;5059917;28;20027;-78
2023/10/26 07:19:11;;;;;;;62.20;17.38;;;9.80;99.90;;;;;;5058172;28;20214;-77
2023/10/26 07:21:37;;;;;;;70.70;17.42;;;9.80;99.90;;;;;;5065938;28;20016;-78
2023/10/26 07:24:03;;;;;;;55.13;17.70;;;9.80;99.90;;;;;;5065058;28;20549;-79
2023/10/26 07:26:29;;;;;;;72.47;17.42;;;9.80;99.90;;;;;;5058438;28;20024;-79
2023/10/26 07:28:56;;;;;;;174.23;21.83;;;9.90;99.90;;;;;;5062968;28;20493;-79
2023/10/26 07:31:22;;;;;;;173.35;23.02;;;9.90;99.90;;;;;;5055132;28;20040;-79
2023/10/26 07:33:49;;;;;;;94.95;20.15;;;9.80;99.90;;;;;;5064785;28;20040;-79
2023/10/26 07:36:15;;;;;;;127.55;20.83;;;9.80;99.90;;;;;;5053123;28;20343;-79
2023/10/26 07:38:41;;;;;;;189.40;20.60;;;9.70;99.90;;;;;;5066840;28;20021;-79
2023/10/26 07:41:07;;;;;;;135.02;20.20;;;9.70;99.90;;;;;;5062033;28;20560;-79
2023/10/26 07:43:34;;;;;;;188.60;21.75;;;9.70;99.90;;;;;;5066676;28;20049;-80
2023/10/26 07:45:59;;;;;;;80.07;17.00;;;9.70;99.90;;;;;;5063126;28;20024;-77
2023/10/26 07:48:25;;;;;;;199.15;20.08;;;9.60;99.90;;;;;;5070645;28;20021;-79
2023/10/26 07:50:51;;;;;;;59.15;17.48;;;9.70;99.90;;;;;;5068104;28;20560;-78
2023/10/26 07:53:17;;;;;;;58.83;17.00;;;9.70;99.90;;;;;;5055213;28;20039;-79
2023/10/26 07:55:44;;;;;;;53.00;18.83;;;9.80;99.90;;;;;;5050690;28;20033;-79
2023/10/26 07:58:09;;;;;;;45.05;16.83;;;9.80;99.90;;;;;;5051785;28;20036;-77
2023/10/26 08:00:37;;;;;;;50.85;18.08;;;9.90;99.90;;;;;;5050784;28;20032;-79
2023/10/26 08:03:03;;;;;;;42.13;15.38;;;9.90;99.90;;;;;;5050128;28;20013;-79
2023/10/26 08:05:29;;;;;;;40.00;17.08;;;9.90;99.90;;;;;;5049788;28;20496;-79
2023/10/26 08:07:55;;;;;;;41.22;15.38;;;10.00;99.90;;;;;;5052864;28;20038;-79
2023/10/26 08:10:20;;;;;;;44.15;15.77;;;10.00;99.90;;;;;;5067989;28;20027;-78
2023/10/26 08:12:49;;;;;;;65.80;18.17;;;10.10;99.90;;;;;;5049013;28;20477;-79
2023/10/26 08:15:15;;;;;;;56.08;17.08;;;10.10;99.90;;;;;;5064610;28;20083;-79
2023/10/26 08:17:40;;;;;;;161.27;19.88;;;10.10;99.90;;;;;;5058486;28;20410;-79
2023/10/26 08:20:09;;;;;;;71.95;18.02;;;10.10;99.90;;;;;;5065171;28;20303;-79
2023/10/26 08:22:35;;;;;;;45.53;17.38;;;10.10;99.90;;;;;;5060629;28;20032;-79
2023/10/26 08:25:02;;;;;;;57.08;18.48;;;10.10;99.90;;;;;;5045137;28;20028;-79
2023/10/26 08:27:29;;;;;;;66.85;18.90;;;10.20;99.90;;;;;;5056371;28;20025;-79
2023/10/26 08:29:54;;;;;;;105.25;22.35;;;10.20;99.90;;;;;;5058300;28;20542;-80
2023/10/26 08:32:20;;;;;;;45.35;17.33;;;10.20;99.90;;;;;;5054312;28;20021;-79
2023/10/26 08:34:46;;;;;;;50.20;19.77;;;10.20;99.90;;;;;;5053811;28;20025;-79
2023/10/26 08:37:12;;;;;;;38.58;18.25;;;10.10;99.90;;;;;;5051386;28;20044;-79
2023/10/26 08:39:39;;;;;;;44.22;18.83;;;10.10;99.90;;;;;;5051956;28;20633;-80
2023/10/26 08:42:05;;;;;;;40.90;17.55;;;10.10;99.90;;;;;;5052238;28;20017;-79
2023/10/26 08:44:31;;;;;;;45.47;19.17;;;10.20;99.90;;;;;;5049921;28;20032;-79
2023/10/26 08:47:03;;;;;;;55.88;21.30;;;10.20;99.90;;;;;;5045248;28;20111;-79
2023/10/26 08:49:30;;;;;;;46.83;19.05;;;10.20;99.90;;;;;;5041262;28;20498;-78
2023/10/26 08:51:56;;;;;;;61.67;21.65;;;10.20;99.90;;;;;;5057578;28;20032;-79
2023/10/26 08:54:22;;;;;;;49.45;21.02;;;10.20;99.90;;;;;;5063248;28;20030;-78
2023/10/26 08:56:48;;;;;;;34.63;16.85;;;10.20;99.90;;;;;;5056612;28;20816;-80
2023/10/26 08:59:14;;;;;;;68.03;22.30;;;10.20;99.90;;;;;;5057291;28;20024;-79
2023/10/26 09:01:45;;;;;;;49.78;20.05;;;10.20;99.90;;;;;;5058274;28;20018;-80
2023/10/26 09:04:11;;;;;;;68.05;22.70;;;10.20;99.90;;;;;;5057843;28;20096;-79
2023/10/26 09:06:47;;;;;;;102.13;25.52;;;10.20;99.90;;;;;;5048579;28;20123;-79
2023/10/26 09:09:14;;;;;;;80.60;21.92;;;10.20;99.90;;;;;;5049421;28;20029;-79
2023/10/26 09:11:40;;;;;;;63.13;22.77;;;10.20;99.90;;;;;;5048777;28;20131;-78
2023/10/26 09:14:16;;;;;;;62.70;25.80;;;10.20;99.90;;;;;;5048929;28;20530;-78
2023/10/26 09:16:44;;;;;;;65.47;26.33;;;10.20;99.90;;;;;;5058857;28;20055;-78
2023/10/26 09:19:11;;;;;;;60.55;25.42;;;10.20;99.90;;;;;;5054082;28;20017;-77
2023/10/26 09:21:51;;;;;;;73.20;25.98;;;10.20;99.90;;;;;;5048172;28;20846;-80
2023/10/26 09:24:24;;;;;;;70.38;25.50;;;10.20;99.90;;;;;;5048079;28;20108;-78
2023/10/26 09:26:51;;;;;;;95.75;28.50;;;10.30;99.90;;;;;;5035007;28;20401;-78
2023/10/26 09:29:18;;;;;;;83.10;28.08;;;10.30;99.90;;;;;;5060404;28;20023;-79
2023/10/26 09:31:56;;;;;;;78.22;25.70;;;10.30;99.90;;;;;;5064402;28;20025;-79
2023/10/26 09:34:24;;;;;;;67.47;25.85;;;10.40;99.90;;;;;;5047864;28;20075;-79
2023/10/26 09:37:05;;;;;;;78.63;26.25;;;10.40;99.90;;;;;;5061056;28;20051;-79
2023/10/26 09:39:34;;;;;;;66.32;25.08;;;10.50;99.90;;;;;;5056002;28;20024;-79
2023/10/26 09:42:01;;;;;;;63.95;24.23;;;10.50;99.90;;;;;;5053887;28;20098;-79
2023/10/26 09:44:28;;;;;;;78.68;27.63;;;10.60;99.90;;;;;;5044426;28;20021;-79
2023/10/26 09:46:54;;;;;;;71.18;26.10;;;10.60;99.90;;;;;;5053577;28;20035;-80
2023/10/26 09:49:23;;;;;;;66.65;26.30;;;10.70;99.90;;;;;;5050020;28;20035;-79
2023/10/26 09:51:49;;;;;;;71.25;26.05;;;10.70;99.90;;;;;;5051351;28;20130;-78
2023/10/26 09:54:17;;;;;;;80.13;27.17;;;10.70;99.90;;;;;;5052459;28;20130;-80
2023/10/26 09:56:49;;;;;;;53.83;21.65;;;10.80;99.90;;;;;;5055777;28;20510;-79
2023/10/26 09:59:15;;;;;;;66.53;25.08;;;10.80;99.90;;;;;;5044991;28;20513;-79
2023/10/26 10:01:41;;;;;;;80.53;27.88;;;10.80;99.90;;;;;;5041410;28;20056;-78
2023/10/26 10:04:09;;;;;;;65.65;25.83;;;10.90;99.90;;;;;;5057885;28;20687;-79
2023/10/26 10:06:52;;;;;;;79.18;27.40;;;10.90;99.90;;;;;;5062695;28;20484;-78
2023/10/26 10:09:22;;;;;;;90.40;28.98;;;11.00;99.90;;;;;;5050311;28;20044;-79
2023/10/26 10:12:06;;;;;;;84.20;30.15;;;11.10;99.90;;;;;;5055886;28;20033;-79
2023/10/26 10:14:47;;;;;;;86.13;28.08;;;11.20;99.90;;;;;;5056754;28;20029;-80
2023/10/26 10:17:13;;;;;;;86.60;28.08;;;11.20;99.90;;;;;;5047340;28;20112;-79
2023/10/26 10:19:40;;;;;;;94.68;28.33;;;11.20;99.90;;;;;;5056827;28;20017;-79
2023/10/26 10:22:38;;;;;;;67.88;26.95;;;11.30;99.90;;;;;;5052075;28;20016;-79
2023/10/26 10:25:10;;;;;;;61.28;25.45;;;11.30;99.90;;;;;;5044515;28;20036;-80
2023/10/26 10:27:40;;;;;;;75.35;26.98;;;11.30;99.90;;;;;;5035527;28;20029;-80
2023/10/26 10:30:11;;;;;;;55.20;25.23;;;11.30;99.90;;;;;;5049017;28;20498;-79
2023/10/26 10:32:46;;;;;;;70.95;28.13;;;11.40;99.90;;;;;;5045828;28;20025;-79
2023/10/26 10:35:35;;;;;;;54.53;24.52;;;11.40;99.90;;;;;;5042376;28;20032;-79
2023/10/26 10:38:13;;;;;;;73.20;28.00;;;11.40;99.90;;;;;;5041400;28;20044;-79
2023/10/26 10:41:02;;;;;;;60.45;25.67;;;11.40;99.90;;;;;;5054039;28;20052;-79
2023/10/26 10:43:38;;;;;;;70.90;26.98;;;11.40;99.90;;;;;;5054135;28;20073;-80
2023/10/26 10:46:18;;;;;;;63.85;27.08;;;11.50;99.90;;;;;;5054710;28;20163;-80
2023/10/26 10:49:14;;;;;;;68.70;27.95;;;11.50;99.90;;;;;;5054199;28;20056;-79
2023/10/26 10:51:42;;;;;;;71.78;26.60;;;11.50;99.90;;;;;;5034401;28;20051;-79
2023/10/26 10:54:10;;;;;;;69.18;27.73;;;11.60;99.90;;;;;;5052091;28;20430;-80
2023/10/26 10:56:47;;;;;;;70.38;27.52;;;11.60;99.90;;;;;;5056254;28;20045;-79
2023/10/26 10:59:20;;;;;;;69.75;25.83;;;11.70;99.90;;;;;;5057582;28;20071;-79
2023/10/26 11:01:47;;;;;;;70.28;28.15;;;11.70;99.90;;;;;;5038040;28;20024;-79
2023/10/26 11:04:13;;;;;;;68.78;28.02;;;11.70;99.90;;;;;;5060106;28;20040;-80
2023/10/26 11:06:47;;;;;;;51.22;23.00;;;11.70;99.90;;;;;;5061556;28;20021;-80
2023/10/26 11:09:27;;;;;;;50.95;22.58;;;11.70;99.90;;;;;;5047701;28;20083;-81
2023/10/26 11:11:54;;;;;;;55.50;24.17;;;11.70;99.90;;;;;;5057950;28;20031;-80
2023/10/26 11:14:22;;;;;;;70.03;25.95;;;11.70;99.90;;;;;;5060334;28;20032;-80
2023/10/26 11:16:51;;;;;;;60.63;24.92;;;11.70;99.90;;;;;;5054463;28;20053;-81
2023/10/26 11:19:17;;;;;;;56.90;25.75;;;11.70;99.90;;;;;;5052734;28;20021;-80
2023/10/26 11:21:43;;;;;;;52.20;26.02;;;11.70;99.90;;;;;;5057516;28;20044;-79
2023/10/26 11:24:10;;;;;;;53.13;24.38;;;11.70;99.90;;;;;;5047934;28;20071;-79
2023/10/26 11:26:35;;;;;;;45.35;25.17;;;11.70;99.90;;;;;;5059614;28;20108;-80
2023/10/26 11:29:03;;;;;;;47.53;25.13;;;11.70;99.90;;;;;;5048600;28;20108;-80
2023/10/26 11:31:41;;;;;;;41.13;21.67;;;11.60;99.90;;;;;;5049605;28;20033;-78
2023/10/26 11:34:07;;;;;;;43.80;22.45;;;11.60;99.90;;;;;;5045659;28;20040;-79
2023/10/26 11:36:34;;;;;;;38.10;20.65;;;11.50;99.90;;;;;;5052376;28;20113;-80
2023/10/26 11:39:00;;;;;;;36.13;20.98;;;11.50;99.90;;;;;;5060910;28;20154;-80
2023/10/26 11:41:29;;;;;;;40.67;21.38;;;11.50;99.90;;;;;;5064239;28;20111;-80
2023/10/26 11:43:58;;;;;;;36.85;20.33;;;11.50;99.90;;;;;;5057058;28;20056;-80
2023/10/26 11:46:32;;;;;;;44.55;21.92;;;11.50;99.90;;;;;;5047618;28;20025;-80
2023/10/26 11:48:58;;;;;;;48.05;22.33;;;11.60;99.90;;;;;;5043680;28;20107;-80
2023/10/26 11:51:24;;;;;;;36.35;19.70;;;11.60;99.90;;;;;;5056596;28;20108;-83
2023/10/26 11:53:49;;;;;;;42.70;20.77;;;11.60;99.90;;;;;;5053715;28;20386;-79
2023/10/26 11:56:15;;;;;;;37.72;20.15;;;11.60;99.90;;;;;;5054585;28;20068;-80
2023/10/26 11:58:42;;;;;;;38.83;18.98;;;11.60;99.90;;;;;;5055950;28;20040;-78
2023/10/26 12:01:08;;;;;;;38.03;18.85;;;11.60;99.90;;;;;;5063734;28;20083;-80
2023/10/26 12:03:35;;;;;;;43.88;21.90;;;11.70;99.90;;;;;;5056998;28;20480;-80
2023/10/26 12:06:01;;;;;;;48.47;22.40;;;11.70;99.90;;;;;;5053988;28;20051;-81
2023/10/26 12:08:27;;;;;;;37.33;19.27;;;11.70;99.90;;;;;;5055647;28;20036;-81
2023/10/26 12:10:52;;;;;;;42.95;21.77;;;11.70;99.90;;;;;;5067304;28;20131;-80
2023/10/26 12:13:18;;;;;;;43.97;21.77;;;11.70;99.90;;;;;;5047152;28;20056;-81
2023/10/26 12:15:44;;;;;;;45.40;22.00;;;11.70;99.90;;;;;;5062184;28;20071;-80
2023/10/26 12:18:11;;;;;;;42.33;20.88;;;11.80;99.90;;;;;;5050536;28;20052;-80
2023/10/26 12:20:37;;;;;;;45.88;22.02;;;11.70;99.90;;;;;;5047964;28;20024;-80
2023/10/26 12:23:04;;;;;;;36.28;21.30;;;11.80;99.90;;;;;;5053073;28;20013;-80
2023/10/26 12:25:29;;;;;;;31.20;17.80;;;11.80;99.90;;;;;;5059540;28;20493;-80
2023/10/26 12:27:56;;;;;;;41.50;21.80;;;11.70;99.90;;;;;;5063014;28;20565;-81